sensor_id;sensor_type;location;lat;lon;timestamp;pressure;altitude;pressure_sealevel;temperature;humidity
71917;BME280;59793;46.506;6.674;2023-03-13T00:01:11;97128.66;;;10.42;67.14
71917;BME280;59793;46.506;6.674;2023-03-13T00:03:37;97112.84;;;10.26;66.87
71917;BME280;59793;46.506;6.674;2023-03-13T00:06:03;97144.88;;;10.28;67.34
71917;BME280;59793;46.506;6.674;2023-03-13T00:08:28;97128.16;;;10.37;66.79
71917;BME280;59793;46.506;6.674;2023-03-13T00:10:54;97108.78;;;10.29;66.71
71917;BME280;59793;46.506;6.674;2023-03-13T00:13:20;97131.72;;;10.44;67.02
71917;BME280;59793;46.506;6.674;2023-03-13T00:15:46;97112.72;;;10.23;66.78
71917;BME280;59793;46.506;6.674;2023-03-13T00:18:12;97104.19;;;10.26;67.31
71917;BME280;59793;46.506;6.674;2023-03-13T00:20:37;97140.31;;;10.41;67.24
71917;BME280;59793;46.506;6.674;2023-03-13T00:23:03;97113.38;;;10.32;66.85
71917;BME280;59793;46.506;6.674;2023-03-13T00:25:28;97129.53;;;10.46;67.92
71917;BME280;59793;46.506;6.674;2023-03-13T00:27:53;97115.78;;;10.25;68.47
71917;BME280;59793;46.506;6.674;2023-03-13T00:30:19;97093.53;;;9.94;68.56
71917;BME280;59793;46.506;6.674;2023-03-13T00:32:45;97120.25;;;10.09;69.23
71917;BME280;59793;46.506;6.674;2023-03-13T00:35:12;97098.13;;;9.97;69.80
71917;BME280;59793;46.506;6.674;2023-03-13T00:37:37;97128.50;;;10.23;69.75
71917;BME280;59793;46.506;6.674;2023-03-13T00:40:04;97109.22;;;10.19;69.26
71917;BME280;59793;46.506;6.674;2023-03-13T00:42:30;97126.78;;;10.27;69.36
71917;BME280;59793;46.506;6.674;2023-03-13T00:44:56;97117.03;;;10.15;70.21
71917;BME280;59793;46.506;6.674;2023-03-13T00:47:21;97130.94;;;10.28;70.02
71917;BME280;59793;46.506;6.674;2023-03-13T00:49:53;97115.78;;;10.25;69.44
71917;BME280;59793;46.506;6.674;2023-03-13T00:52:18;97120.16;;;10.33;69.23
71917;BME280;59793;46.506;6.674;2023-03-13T00:54:43;97131.91;;;10.51;69.67
71917;BME280;59793;46.506;6.674;2023-03-13T00:57:09;97093.66;;;10.26;69.68
71917;BME280;59793;46.506;6.674;2023-03-13T00:59:34;97103.78;;;10.40;69.04
71917;BME280;59793;46.506;6.674;2023-03-13T01:02:00;97131.28;;;10.42;69.20
71917;BME280;59793;46.506;6.674;2023-03-13T01:04:25;97101.06;;;10.36;69.08
71917;BME280;59793;46.506;6.674;2023-03-13T01:06:51;97124.47;;;10.53;68.67
71917;BME280;59793;46.506;6.674;2023-03-13T01:09:16;97127.94;;;10.73;67.59
71917;BME280;59793;46.506;6.674;2023-03-13T01:11:43;97128.28;;;10.88;67.21
71917;BME280;59793;46.506;6.674;2023-03-13T01:14:12;97119.22;;;10.85;66.46
71917;BME280;59793;46.506;6.674;2023-03-13T01:16:39;97107.88;;;10.85;65.58
71917;BME280;59793;46.506;6.674;2023-03-13T01:19:10;97116.66;;;11.05;64.45
71917;BME280;59793;46.506;6.674;2023-03-13T01:21:36;97091.06;;;10.89;64.16
71917;BME280;59793;46.506;6.674;2023-03-13T01:24:02;97108.41;;;11.06;64.59
71917;BME280;59793;46.506;6.674;2023-03-13T01:26:28;97101.50;;;11.01;66.17
71917;BME280;59793;46.506;6.674;2023-03-13T01:28:54;97051.88;;;10.72;66.54
71917;BME280;59793;46.506;6.674;2023-03-13T01:31:26;97088.44;;;10.89;67.40
71917;BME280;59793;46.506;6.674;2023-03-13T01:33:56;97074.56;;;10.92;67.18
71917;BME280;59793;46.506;6.674;2023-03-13T01:36:23;97023.50;;;10.49;68.08
71917;BME280;59793;46.506;6.674;2023-03-13T01:38:50;97044.66;;;10.69;68.56
71917;BME280;59793;46.506;6.674;2023-03-13T01:41:16;97068.78;;;10.55;70.78
71917;BME280;59793;46.506;6.674;2023-03-13T01:43:43;97056.66;;;10.22;72.50
71917;BME280;59793;46.506;6.674;2023-03-13T01:46:14;97070.72;;;10.42;72.22
71917;BME280;59793;46.506;6.674;2023-03-13T01:48:56;97062.41;;;10.40;72.65
71917;BME280;59793;46.506;6.674;2023-03-13T01:51:43;97080.59;;;10.45;72.16
71917;BME280;59793;46.506;6.674;2023-03-13T01:57:00;97071.91;;;10.29;70.69
71917;BME280;59793;46.506;6.674;2023-03-13T01:59:32;97053.91;;;10.03;70.23
71917;BME280;59793;46.506;6.674;2023-03-13T02:02:01;97093.28;;;10.27;70.60
71917;BME280;59793;46.506;6.674;2023-03-13T02:04:30;97074.16;;;10.15;70.98
71917;BME280;59793;46.506;6.674;2023-03-13T02:07:01;97073.91;;;10.20;70.94
71917;BME280;59793;46.506;6.674;2023-03-13T02:09:30;97095.25;;;10.31;70.73
71917;BME280;59793;46.506;6.674;2023-03-13T02:12:01;97066.84;;;10.24;70.50
71917;BME280;59793;46.506;6.674;2023-03-13T02:14:31;97040.16;;;10.10;69.76
71917;BME280;59793;46.506;6.674;2023-03-13T02:16:59;97056.13;;;10.29;68.67
71917;BME280;59793;46.506;6.674;2023-03-13T02:19:46;97050.59;;;10.34;68.78
71917;BME280;59793;46.506;6.674;2023-03-13T02:22:32;97055.34;;;10.44;68.87
71917;BME280;59793;46.506;6.674;2023-03-13T02:25:27;97076.63;;;10.67;69.36
71917;BME280;59793;46.506;6.674;2023-03-13T02:28:03;97063.84;;;10.69;68.27
71917;BME280;59793;46.506;6.674;2023-03-13T02:30:29;97057.06;;;10.52;68.79
71917;BME280;59793;46.506;6.674;2023-03-13T02:32:55;97051.88;;;10.56;67.05
71917;BME280;59793;46.506;6.674;2023-03-13T02:35:21;97055.88;;;10.66;68.52
71917;BME280;59793;46.506;6.674;2023-03-13T02:37:50;97040.66;;;10.59;69.24
71917;BME280;59793;46.506;6.674;2023-03-13T02:40:21;96984.84;;;10.38;68.63
71917;BME280;59793;46.506;6.674;2023-03-13T02:42:49;96999.09;;;10.52;68.08
71917;BME280;59793;46.506;6.674;2023-03-13T02:45:16;97016.19;;;10.59;67.90
71917;BME280;59793;46.506;6.674;2023-03-13T02:47:43;97005.56;;;10.55;69.89
71917;BME280;59793;46.506;6.674;2023-03-13T02:50:09;96967.06;;;10.35;70.95
71917;BME280;59793;46.506;6.674;2023-03-13T02:52:44;96982.72;;;10.43;70.25
71917;BME280;59793;46.506;6.674;2023-03-13T02:55:16;96944.47;;;10.18;69.25
71917;BME280;59793;46.506;6.674;2023-03-13T02:57:46;96966.06;;;10.39;69.33
71917;BME280;59793;46.506;6.674;2023-03-13T03:00:12;96964.81;;;10.33;69.09
71917;BME280;59793;46.506;6.674;2023-03-13T03:02:38;96947.03;;;10.30;70.82
71917;BME280;59793;46.506;6.674;2023-03-13T03:05:04;96955.00;;;10.18;71.50
71917;BME280;59793;46.506;6.674;2023-03-13T03:07:30;96986.09;;;10.28;70.74
71917;BME280;59793;46.506;6.674;2023-03-13T03:09:55;96952.88;;;10.08;70.46
71917;BME280;59793;46.506;6.674;2023-03-13T03:12:20;96965.88;;;10.16;71.21
71917;BME280;59793;46.506;6.674;2023-03-13T03:14:46;96963.16;;;10.13;69.98
71917;BME280;59793;46.506;6.674;2023-03-13T03:17:11;96970.53;;;10.23;69.35
71917;BME280;59793;46.506;6.674;2023-03-13T03:19:37;96960.88;;;10.27;69.23
71917;BME280;59793;46.506;6.674;2023-03-13T03:22:02;96946.50;;;10.09;69.59
71917;BME280;59793;46.506;6.674;2023-03-13T03:24:27;96983.47;;;10.28;69.01
71917;BME280;59793;46.506;6.674;2023-03-13T03:26:53;96932.56;;;9.92;68.56
71917;BME280;59793;46.506;6.674;2023-03-13T03:29:18;96952.13;;;10.07;67.91
71917;BME280;59793;46.506;6.674;2023-03-13T03:31:44;96940.41;;;10.04;67.84
71917;BME280;59793;46.506;6.674;2023-03-13T03:34:09;96958.25;;;10.27;66.85
71917;BME280;59793;46.506;6.674;2023-03-13T03:36:36;96978.72;;;10.49;64.86
71917;BME280;59793;46.506;6.674;2023-03-13T03:39:02;96941.94;;;10.37;66.00
71917;BME280;59793;46.506;6.674;2023-03-13T03:41:29;96968.44;;;10.44;67.38
71917;BME280;59793;46.506;6.674;2023-03-13T03:43:55;96954.44;;;10.40;65.33
71917;BME280;59793;46.506;6.674;2023-03-13T03:46:20;96970.84;;;10.49;65.38
71917;BME280;59793;46.506;6.674;2023-03-13T03:48:45;96937.66;;;10.17;65.62
71917;BME280;59793;46.506;6.674;2023-03-13T03:51:11;96954.75;;;10.23;66.61
71917;BME280;59793;46.506;6.674;2023-03-13T03:53:36;96928.59;;;9.98;67.61
71917;BME280;59793;46.506;6.674;2023-03-13T03:56:02;96961.81;;;10.19;67.07
71917;BME280;59793;46.506;6.674;2023-03-13T03:58:27;96935.97;;;10.09;66.72
71917;BME280;59793;46.506;6.674;2023-03-13T04:00:55;96947.84;;;10.02;65.83
71917;BME280;59793;46.506;6.674;2023-03-13T04:03:21;96940.22;;;9.97;66.12
71917;BME280;59793;46.506;6.674;2023-03-13T04:05:47;96941.38;;;10.00;65.71
71917;BME280;59793;46.506;6.674;2023-03-13T04:08:12;96964.84;;;10.21;65.99
71917;BME280;59793;46.506;6.674;2023-03-13T04:10:38;96964.28;;;10.27;66.65
71917;BME280;59793;46.506;6.674;2023-03-13T04:13:04;96911.28;;;9.97;66.23
71917;BME280;59793;46.506;6.674;2023-03-13T04:15:29;96935.22;;;10.08;66.53
71917;BME280;59793;46.506;6.674;2023-03-13T04:17:55;96977.47;;;10.43;65.75
71917;BME280;59793;46.506;6.674;2023-03-13T04:20:20;96979.66;;;10.57;65.45
71917;BME280;59793;46.506;6.674;2023-03-13T04:22:46;96943.53;;;10.42;65.29
71917;BME280;59793;46.506;6.674;2023-03-13T04:25:11;96967.41;;;10.49;65.38
71917;BME280;59793;46.506;6.674;2023-03-13T04:27:36;96961.38;;;10.48;64.29
71917;BME280;59793;46.506;6.674;2023-03-13T04:30:02;96963.34;;;10.51;63.67
71917;BME280;59793;46.506;6.674;2023-03-13T04:32:28;96997.81;;;10.78;63.38
71917;BME280;59793;46.506;6.674;2023-03-13T04:34:54;96943.63;;;10.45;63.03
71917;BME280;59793;46.506;6.674;2023-03-13T04:37:19;96965.28;;;10.55;63.34
71917;BME280;59793;46.506;6.674;2023-03-13T04:39:44;96998.59;;;10.79;63.66
71917;BME280;59793;46.506;6.674;2023-03-13T04:42:11;96966.13;;;10.59;63.39
71917;BME280;59793;46.506;6.674;2023-03-13T04:44:37;96983.63;;;10.67;63.54
71917;BME280;59793;46.506;6.674;2023-03-13T04:47:03;97006.66;;;10.86;62.58
71917;BME280;59793;46.506;6.674;2023-03-13T04:49:29;96985.41;;;10.63;62.91
71917;BME280;59793;46.506;6.674;2023-03-13T04:51:54;97000.97;;;10.68;62.73
71917;BME280;59793;46.506;6.674;2023-03-13T04:54:20;96978.47;;;10.55;62.75
71917;BME280;59793;46.506;6.674;2023-03-13T04:56:46;96995.34;;;10.85;62.43
71917;BME280;59793;46.506;6.674;2023-03-13T04:59:12;96987.00;;;10.83;62.64
71917;BME280;59793;46.506;6.674;2023-03-13T05:01:38;96961.59;;;10.75;62.42
71917;BME280;59793;46.506;6.674;2023-03-13T05:04:04;96977.41;;;10.75;64.40
71917;BME280;59793;46.506;6.674;2023-03-13T05:06:29;96961.28;;;10.61;63.50
71917;BME280;59793;46.506;6.674;2023-03-13T05:08:55;96986.16;;;10.79;63.58
71917;BME280;59793;46.506;6.674;2023-03-13T05:11:21;96979.09;;;10.83;63.12
71917;BME280;59793;46.506;6.674;2023-03-13T05:13:46;96969.25;;;10.80;63.37
71917;BME280;59793;46.506;6.674;2023-03-13T05:16:12;96997.69;;;10.90;63.70
71917;BME280;59793;46.506;6.674;2023-03-13T05:18:37;96978.94;;;10.76;63.65
71917;BME280;59793;46.506;6.674;2023-03-13T05:21:04;96974.34;;;10.73;63.60
71917;BME280;59793;46.506;6.674;2023-03-13T05:23:29;96962.22;;;10.68;63.28
71917;BME280;59793;46.506;6.674;2023-03-13T05:25:55;96967.13;;;10.70;63.31
71917;BME280;59793;46.506;6.674;2023-03-13T05:28:20;96992.09;;;10.92;63.81
71917;BME280;59793;46.506;6.674;2023-03-13T05:30:46;96983.19;;;10.81;65.08
71917;BME280;59793;46.506;6.674;2023-03-13T05:33:11;96971.47;;;10.62;65.71
71917;BME280;59793;46.506;6.674;2023-03-13T05:35:36;96997.75;;;10.74;65.66
71917;BME280;59793;46.506;6.674;2023-03-13T05:38:02;96970.13;;;10.68;64.72
71917;BME280;59793;46.506;6.674;2023-03-13T05:40:27;96949.91;;;10.57;65.28
71917;BME280;59793;46.506;6.674;2023-03-13T05:42:52;96932.56;;;10.56;63.83
71917;BME280;59793;46.506;6.674;2023-03-13T05:45:18;96931.19;;;10.62;63.88
71917;BME280;59793;46.506;6.674;2023-03-13T05:47:43;96916.75;;;10.56;64.75
71917;BME280;59793;46.506;6.674;2023-03-13T05:50:09;96960.28;;;10.85;64.92
71917;BME280;59793;46.506;6.674;2023-03-13T05:52:35;96949.69;;;10.81;65.52
71917;BME280;59793;46.506;6.674;2023-03-13T05:55:00;96925.41;;;10.72;65.35
71917;BME280;59793;46.506;6.674;2023-03-13T05:57:25;96947.31;;;10.76;65.62
71917;BME280;59793;46.506;6.674;2023-03-13T05:59:51;96943.72;;;10.84;64.86
71917;BME280;59793;46.506;6.674;2023-03-13T06:02:16;96927.06;;;10.80;64.71
71917;BME280;59793;46.506;6.674;2023-03-13T06:04:42;96956.94;;;11.04;64.81
71917;BME280;59793;46.506;6.674;2023-03-13T06:07:07;96921.25;;;10.71;65.31
71917;BME280;59793;46.506;6.674;2023-03-13T06:09:33;96891.00;;;10.65;64.77
71917;BME280;59793;46.506;6.674;2023-03-13T06:11:58;96933.53;;;11.02;64.33
71917;BME280;59793;46.506;6.674;2023-03-13T06:14:24;96892.56;;;10.85;63.70
71917;BME280;59793;46.506;6.674;2023-03-13T06:16:50;96916.97;;;11.01;64.25
71917;BME280;59793;46.506;6.674;2023-03-13T06:19:15;96933.56;;;11.21;65.14
71917;BME280;59793;46.506;6.674;2023-03-13T06:21:41;96937.25;;;11.17;65.09
71917;BME280;59793;46.506;6.674;2023-03-13T06:24:07;96884.44;;;10.94;64.88
71917;BME280;59793;46.506;6.674;2023-03-13T06:26:32;96912.97;;;11.08;65.06
71917;BME280;59793;46.506;6.674;2023-03-13T06:28:58;96912.13;;;11.04;65.19
71917;BME280;59793;46.506;6.674;2023-03-13T06:31:23;96904.91;;;11.00;64.65
71917;BME280;59793;46.506;6.674;2023-03-13T06:33:52;96902.91;;;11.13;65.20
71917;BME280;59793;46.506;6.674;2023-03-13T06:36:18;96902.84;;;11.10;65.38
71917;BME280;59793;46.506;6.674;2023-03-13T06:38:44;96907.19;;;11.21;65.18
71917;BME280;59793;46.506;6.674;2023-03-13T06:41:09;96885.63;;;11.16;64.01
71917;BME280;59793;46.506;6.674;2023-03-13T06:43:34;96859.94;;;11.13;64.06
71917;BME280;59793;46.506;6.674;2023-03-13T06:46:03;96892.84;;;11.38;64.82
71917;BME280;59793;46.506;6.674;2023-03-13T06:48:29;96854.41;;;11.18;64.85
71917;BME280;59793;46.506;6.674;2023-03-13T06:50:55;96902.09;;;11.52;64.33
71917;BME280;59793;46.506;6.674;2023-03-13T06:53:21;96880.22;;;11.51;64.00
71917;BME280;59793;46.506;6.674;2023-03-13T06:55:47;96885.44;;;11.47;64.11
71917;BME280;59793;46.506;6.674;2023-03-13T06:58:13;96881.97;;;11.63;63.39
71917;BME280;59793;46.506;6.674;2023-03-13T07:00:39;96842.28;;;11.36;63.26
71917;BME280;59793;46.506;6.674;2023-03-13T07:03:05;96883.53;;;11.67;62.72
71917;BME280;59793;46.506;6.674;2023-03-13T07:05:30;96881.66;;;11.87;62.18
71917;BME280;59793;46.506;6.674;2023-03-13T07:07:56;96878.31;;;11.94;63.12
71917;BME280;59793;46.506;6.674;2023-03-13T07:10:21;96860.69;;;11.98;63.04
71917;BME280;59793;46.506;6.674;2023-03-13T07:12:47;96845.50;;;11.91;61.82
71917;BME280;59793;46.506;6.674;2023-03-13T07:15:13;96838.69;;;11.90;61.64
71917;BME280;59793;46.506;6.674;2023-03-13T07:17:38;96862.31;;;12.06;61.35
71917;BME280;59793;46.506;6.674;2023-03-13T07:20:04;96844.16;;;12.05;61.43
71917;BME280;59793;46.506;6.674;2023-03-13T07:22:31;96886.13;;;12.36;61.17
71917;BME280;59793;46.506;6.674;2023-03-13T07:24:56;96884.00;;;12.46;61.05
71917;BME280;59793;46.506;6.674;2023-03-13T07:27:22;96860.13;;;12.38;60.22
71917;BME280;59793;46.506;6.674;2023-03-13T07:29:48;96824.91;;;12.27;60.79
71917;BME280;59793;46.506;6.674;2023-03-13T07:32:14;96871.53;;;12.73;60.44
71917;BME280;59793;46.506;6.674;2023-03-13T07:34:39;96847.63;;;12.62;59.06
71917;BME280;59793;46.506;6.674;2023-03-13T07:37:05;96837.41;;;12.60;58.63
71917;BME280;59793;46.506;6.674;2023-03-13T07:39:30;96827.44;;;12.50;58.81
71917;BME280;59793;46.506;6.674;2023-03-13T07:41:55;96844.88;;;12.55;59.30
71917;BME280;59793;46.506;6.674;2023-03-13T07:44:21;96857.03;;;12.59;58.76
71917;BME280;59793;46.506;6.674;2023-03-13T07:46:46;96821.94;;;12.32;58.48
71917;BME280;59793;46.506;6.674;2023-03-13T07:49:12;96815.94;;;12.35;56.91
71917;BME280;59793;46.506;6.674;2023-03-13T07:51:38;96800.88;;;12.39;57.26
71917;BME280;59793;46.506;6.674;2023-03-13T07:54:03;96833.41;;;12.74;57.08
71917;BME280;59793;46.506;6.674;2023-03-13T07:56:29;96849.97;;;13.01;57.51
71917;BME280;59793;46.506;6.674;2023-03-13T07:58:54;96816.25;;;12.90;57.46
71917;BME280;59793;46.506;6.674;2023-03-13T08:01:23;96843.47;;;13.28;57.78
71917;BME280;59793;46.506;6.674;2023-03-13T08:03:49;96820.13;;;13.37;57.65
71917;BME280;59793;46.506;6.674;2023-03-13T08:06:20;96827.25;;;13.74;56.03
71917;BME280;59793;46.506;6.674;2023-03-13T08:08:47;96820.56;;;13.91;55.36
71917;BME280;59793;46.506;6.674;2023-03-13T08:11:21;96815.53;;;14.30;53.68
71917;BME280;59793;46.506;6.674;2023-03-13T08:13:49;96764.06;;;14.31;52.22
71917;BME280;59793;46.506;6.674;2023-03-13T08:16:19;96804.34;;;14.58;51.80
71917;BME280;59793;46.506;6.674;2023-03-13T08:18:47;96784.50;;;14.34;52.13
71917;BME280;59793;46.506;6.674;2023-03-13T08:21:15;96810.03;;;14.57;53.78
71917;BME280;59793;46.506;6.674;2023-03-13T08:23:41;96831.31;;;14.78;53.12
71917;BME280;59793;46.506;6.674;2023-03-13T08:26:11;96829.47;;;14.93;51.97
71917;BME280;59793;46.506;6.674;2023-03-13T08:28:38;96825.63;;;14.76;51.51
71917;BME280;59793;46.506;6.674;2023-03-13T08:31:12;96820.91;;;14.48;51.12
71917;BME280;59793;46.506;6.674;2023-03-13T08:33:38;96812.31;;;14.62;51.42
71917;BME280;59793;46.506;6.674;2023-03-13T08:36:31;96806.59;;;14.53;50.98
71917;BME280;59793;46.506;6.674;2023-03-13T08:38:59;96763.25;;;14.27;49.13
71917;BME280;59793;46.506;6.674;2023-03-13T08:41:28;96804.91;;;14.27;51.82
71917;BME280;59793;46.506;6.674;2023-03-13T08:43:55;96810.41;;;14.59;49.96
71917;BME280;59793;46.506;6.674;2023-03-13T08:46:21;96815.75;;;14.73;51.38
71917;BME280;59793;46.506;6.674;2023-03-13T08:48:53;96804.53;;;15.19;49.84
71917;BME280;59793;46.506;6.674;2023-03-13T08:51:21;96795.91;;;15.72;48.32
71917;BME280;59793;46.506;6.674;2023-03-13T08:53:47;96792.06;;;15.95;46.84
71917;BME280;59793;46.506;6.674;2023-03-13T08:56:17;96746.19;;;15.84;46.12
71917;BME280;59793;46.506;6.674;2023-03-13T08:58:43;96751.75;;;16.21;45.29
71917;BME280;59793;46.506;6.674;2023-03-13T09:01:13;96745.38;;;16.01;45.51
71917;BME280;59793;46.506;6.674;2023-03-13T09:03:39;96759.00;;;16.14;45.22
71917;BME280;59793;46.506;6.674;2023-03-13T09:06:06;96720.72;;;15.86;45.32
71917;BME280;59793;46.506;6.674;2023-03-13T09:08:32;96751.47;;;15.87;45.94
71917;BME280;59793;46.506;6.674;2023-03-13T09:10:59;96739.34;;;15.75;46.50
71917;BME280;59793;46.506;6.674;2023-03-13T09:13:26;96727.19;;;15.74;47.12
71917;BME280;59793;46.506;6.674;2023-03-13T09:16:22;96728.69;;;15.90;48.47
71917;BME280;59793;46.506;6.674;2023-03-13T09:18:49;96740.88;;;15.66;50.09
71917;BME280;59793;46.506;6.674;2023-03-13T09:21:18;96737.06;;;15.49;48.43
71917;BME280;59793;46.506;6.674;2023-03-13T09:23:44;96704.44;;;14.88;48.39
71917;BME280;59793;46.506;6.674;2023-03-13T09:26:11;96715.41;;;14.82;48.87
71917;BME280;59793;46.506;6.674;2023-03-13T09:28:37;96726.72;;;14.65;49.64
71917;BME280;59793;46.506;6.674;2023-03-13T09:31:23;96700.63;;;14.81;49.93
71917;BME280;59793;46.506;6.674;2023-03-13T09:33:49;96701.41;;;14.89;48.91
71917;BME280;59793;46.506;6.674;2023-03-13T09:36:16;96717.72;;;15.20;48.96
71917;BME280;59793;46.506;6.674;2023-03-13T09:38:42;96722.25;;;15.05;48.50
71917;BME280;59793;46.506;6.674;2023-03-13T09:41:21;96705.97;;;15.10;49.49
71917;BME280;59793;46.506;6.674;2023-03-13T09:44:01;96696.88;;;15.22;48.30
71917;BME280;59793;46.506;6.674;2023-03-13T09:49:03;96667.25;;;14.73;49.38
71917;BME280;59793;46.506;6.674;2023-03-13T09:51:34;96700.66;;;15.17;48.68
71917;BME280;59793;46.506;6.674;2023-03-13T09:56:59;96699.09;;;14.77;49.31
71917;BME280;59793;46.506;6.674;2023-03-13T09:59:41;96683.59;;;15.11;48.59
71917;BME280;59793;46.506;6.674;2023-03-13T10:02:32;96677.91;;;15.52;47.80
71917;BME280;59793;46.506;6.674;2023-03-13T10:05:08;96662.69;;;15.85;46.55
71917;BME280;59793;46.506;6.674;2023-03-13T10:07:35;96676.16;;;16.37;48.25
71917;BME280;59793;46.506;6.674;2023-03-13T10:10:02;96667.16;;;16.86;47.05
71917;BME280;59793;46.506;6.674;2023-03-13T10:12:29;96664.00;;;17.47;45.01
71917;BME280;59793;46.506;6.674;2023-03-13T10:15:16;96679.16;;;17.54;45.12
71917;BME280;59793;46.506;6.674;2023-03-13T10:17:45;96676.69;;;17.70;43.85
71917;BME280;59793;46.506;6.674;2023-03-13T10:20:21;96673.53;;;16.96;44.23
71917;BME280;59793;46.506;6.674;2023-03-13T10:23:13;96656.47;;;16.90;44.59
71917;BME280;59793;46.506;6.674;2023-03-13T10:25:39;96642.53;;;16.71;44.44
71917;BME280;59793;46.506;6.674;2023-03-13T10:28:10;96644.81;;;17.22;44.50
71917;BME280;59793;46.506;6.674;2023-03-13T10:30:37;96631.78;;;17.31;44.73
71917;BME280;59793;46.506;6.674;2023-03-13T10:35:38;96626.84;;;18.05;44.77
71917;BME280;59793;46.506;6.674;2023-03-13T10:38:09;96595.44;;;18.20;44.53
71917;BME280;59793;46.506;6.674;2023-03-13T10:40:35;96604.91;;;18.51;44.16
71917;BME280;59793;46.506;6.674;2023-03-13T10:43:04;96610.34;;;18.44;42.07
71917;BME280;59793;46.506;6.674;2023-03-13T10:45:35;96605.66;;;18.25;41.56
71917;BME280;59793;46.506;6.674;2023-03-13T10:48:25;96603.81;;;17.53;43.02
71917;BME280;59793;46.506;6.674;2023-03-13T10:50:49;96605.31;;;17.16;43.66
71917;BME280;59793;46.506;6.674;2023-03-13T10:53:32;96581.50;;;17.78;42.61
71917;BME280;59793;46.506;6.674;2023-03-13T10:56:14;96581.06;;;18.13;42.21
71917;BME280;59793;46.506;6.674;2023-03-13T10:58:43;96568.88;;;17.82;42.90
71917;BME280;59793;46.506;6.674;2023-03-13T11:01:29;96567.16;;;17.99;42.48
71917;BME280;59793;46.506;6.674;2023-03-13T11:03:57;96512.38;;;17.63;42.95
71917;BME280;59793;46.506;6.674;2023-03-13T11:06:34;96550.56;;;17.84;42.78
71917;BME280;59793;46.506;6.674;2023-03-13T11:11:47;96548.56;;;17.95;41.99
71917;BME280;59793;46.506;6.674;2023-03-13T11:14:16;96527.16;;;17.34;43.67
71917;BME280;59793;46.506;6.674;2023-03-13T11:16:47;96537.66;;;17.48;44.04
71917;BME280;59793;46.506;6.674;2023-03-13T11:19:29;96538.50;;;17.41;43.86
71917;BME280;59793;46.506;6.674;2023-03-13T11:27:30;96532.88;;;17.66;44.13
71917;BME280;59793;46.506;6.674;2023-03-13T11:32:52;96508.22;;;18.44;42.72
71917;BME280;59793;46.506;6.674;2023-03-13T11:35:46;96530.91;;;19.02;40.76
71917;BME280;59793;46.506;6.674;2023-03-13T11:57:20;96500.06;;;20.14;39.45
71917;BME280;59793;46.506;6.674;2023-03-13T12:00:32;96497.63;;;20.03;41.11
71917;BME280;59793;46.506;6.674;2023-03-13T12:03:27;96471.00;;;20.32;40.37
71917;BME280;59793;46.506;6.674;2023-03-13T12:05:58;96457.88;;;20.99;38.42
71917;BME280;59793;46.506;6.674;2023-03-13T12:08:28;96446.16;;;20.48;38.41
71917;BME280;59793;46.506;6.674;2023-03-13T12:13:28;96392.91;;;20.37;39.55
71917;BME280;59793;46.506;6.674;2023-03-13T12:15:59;96417.28;;;20.72;39.58
71917;BME280;59793;46.506;6.674;2023-03-13T12:18:33;96396.94;;;21.16;38.06
71917;BME280;59793;46.506;6.674;2023-03-13T12:21:21;96394.38;;;20.71;38.22
71917;BME280;59793;46.506;6.674;2023-03-13T12:26:18;96362.63;;;20.57;37.97
71917;BME280;59793;46.506;6.674;2023-03-13T12:31:35;96364.84;;;20.87;38.98
71917;BME280;59793;46.506;6.674;2023-03-13T12:39:51;96324.38;;;21.87;37.27
71917;BME280;59793;46.506;6.674;2023-03-13T12:42:26;96335.75;;;21.66;37.53
71917;BME280;59793;46.506;6.674;2023-03-13T12:44:56;96330.41;;;21.66;37.56
71917;BME280;59793;46.506;6.674;2023-03-13T12:56:30;96283.56;;;20.94;38.48
71917;BME280;59793;46.506;6.674;2023-03-13T12:59:22;96254.06;;;21.58;37.91
71917;BME280;59793;46.506;6.674;2023-03-13T13:01:51;96247.75;;;21.86;37.59
71917;BME280;59793;46.506;6.674;2023-03-13T13:04:30;96237.13;;;21.95;36.35
71917;BME280;59793;46.506;6.674;2023-03-13T13:09:23;96228.84;;;22.03;38.56
71917;BME280;59793;46.506;6.674;2023-03-13T13:11:50;96194.19;;;21.26;36.90
71917;BME280;59793;46.506;6.674;2023-03-13T13:16:51;96220.66;;;20.18;38.83
71917;BME280;59793;46.506;6.674;2023-03-13T13:24:53;96190.38;;;20.50;39.83
71917;BME280;59793;46.506;6.674;2023-03-13T13:29:58;96180.72;;;21.04;39.16
71917;BME280;59793;46.506;6.674;2023-03-13T13:32:35;96198.50;;;21.71;38.54
71917;BME280;59793;46.506;6.674;2023-03-13T13:37:27;96175.44;;;21.74;36.99
71917;BME280;59793;46.506;6.674;2023-03-13T13:43:00;96175.53;;;22.14;37.76
71917;BME280;59793;46.506;6.674;2023-03-13T13:45:31;96162.06;;;21.61;36.96
71917;BME280;59793;46.506;6.674;2023-03-13T13:48:30;96145.13;;;20.14;38.55
71917;BME280;59793;46.506;6.674;2023-03-13T13:53:44;96138.09;;;20.46;39.60
71917;BME280;59793;46.506;6.674;2023-03-13T13:56:31;96126.88;;;20.89;39.10
71917;BME280;59793;46.506;6.674;2023-03-13T14:01:26;96110.09;;;21.80;37.82
71917;BME280;59793;46.506;6.674;2023-03-13T14:03:57;96092.16;;;21.99;36.52
71917;BME280;59793;46.506;6.674;2023-03-13T14:06:27;96110.69;;;20.29;38.32
71917;BME280;59793;46.506;6.674;2023-03-13T14:09:11;96087.28;;;19.78;40.39
71917;BME280;59793;46.506;6.674;2023-03-13T14:11:40;96084.72;;;19.75;40.63
71917;BME280;59793;46.506;6.674;2023-03-13T14:16:36;96065.84;;;20.46;40.63
71917;BME280;59793;46.506;6.674;2023-03-13T14:19:02;96075.13;;;20.92;39.16
71917;BME280;59793;46.506;6.674;2023-03-13T14:21:28;96015.03;;;20.33;38.90
71917;BME280;59793;46.506;6.674;2023-03-13T14:23:53;96037.66;;;20.80;38.53
71917;BME280;59793;46.506;6.674;2023-03-13T14:26:24;96046.03;;;20.82;39.64
71917;BME280;59793;46.506;6.674;2023-03-13T14:28:52;96041.06;;;20.93;39.33
71917;BME280;59793;46.506;6.674;2023-03-13T14:33:57;96012.09;;;21.35;38.18
71917;BME280;59793;46.506;6.674;2023-03-13T14:36:23;95993.50;;;21.63;37.87
71917;BME280;59793;46.506;6.674;2023-03-13T14:38:56;95989.75;;;21.91;36.42
71917;BME280;59793;46.506;6.674;2023-03-13T14:41:42;95982.19;;;21.99;36.91